Taft, Ohio
Current Conditions -  °F | °C
As of 6:53 PM on Friday 28 Nov 2014 (Local Time) from KLUK Reporting Station
Clear Clear  
Wind Chill: 26°   Ceiling: Unl
Heat Index: 32°   Visibility: 10mi
Dew Point: 18°   Wind: 6mph
Humidity: 56%   Direction: 170°S
Pressure: 30.2"   Gusts: NA
Location:  39.2094°N, 84.3952°W
Report Text: KLUK 282353Z 17005KT 10SM CLR 00/M08 A3020 RMK AO2 SLP231 T00001078 10022 20000 58018
Loading
Personal Weather Stations






























Interactive Weather Map New forecast layout! Learn more

10-Day Weather Forecast

Advertisements
Track Severe Weather on mobile